メインページ
METAR-TAF:

METAR-TAF

空港 :

Peace River, アルバータ州, カナダ

緯度: 56-14N, 経度: 117-26W, 海抜: 571m

現時点の気象観測

当レポートは55分前の03:00(UTC)に作成
北西の風 3kt
気温 16°C
湿度 82%
気圧 1012 hPa
視程: 24.1km
高度5000ftの雲はほとんどない, 積乱雲.
高度10000ftの千切れ雲あり
高度21000ftの千切れ雲あり

METAR: CYPE 260300Z 32003KT 15SM FEW050CB BKN100 BKN210 16/13 A2987 RMK CB1AC5CI2 CB TR SLP125 DENSITY ALT 2500FT

時間: 21:55 (03:55 UTC)

予報

当レポートは3時間17分前の00:38(UTC)に作成
予報は26日の 01時(UTC)から 26日の 13時(UTC)まで有効
西/南西の風 8kt
視程: 10km
高度5000ftの雲は散在している
高度10000ftの千切れ雲あり
26日の 01時(UTC)から 26日の 04時(UTC)まで一時的に
変向風 15kt、最大25ktの突風を伴う
視程: 6.4km
高度5000ftの千切れ雲あり, 積乱雲.
激しい雷雨, 雨
26日の 0400時(UTC)から
変向風 3kt
視程: 10km
高度4000ftの千切れ雲あり
26日の 1000時(UTC)から
変向風 3kt
視程: 9.7km
高度4000ftの雲は散在している
26日の 10時(UTC)から 26日の 13時(UTC)まで一時的に
視程: 3.2km
確率 30%
26日の 10時(UTC)から 26日の 13時(UTC)まで
視程: 0.8km

TAF: CYPE 260038Z 2601/2613 25008KT P6SM SCT050 BKN100 TEMPO 2601/2604 VRB15G25KT 4SM TSRA BKN050CB FM260400 VRB03KT P6SM BKN040 FM261000 VRB03KT 6SM BR SCT040 TEMPO 2610/2613 2SM BR PROB30 2610/2613 1/2SM FG RMK NXT FCST BY 260700Z

4,000以上の空港の気象観測と天気予報(METAR報とTAF報)

利用可能な観測所は地図上に黄色い丸と赤い丸で示す。

丸の上にカーソルを重ねると観測所名を参照できる。

次にクリックすると気象観測と天気予報を参照できる。

マップの切り替え:黒色「×」印の緑ボタンをクリックして拡大、「-」印の緑ボタンをクリックして縮小、緑色の三角印をクリックして隣りの地図に切り替え


METAR-TAF: